createdAt,value
2018-07-14T00:00:18.469Z,16.27
2018-07-14T00:02:47.236Z,11.70
2018-07-14T00:05:15.951Z,11.10
2018-07-14T00:07:44.848Z,18.20
2018-07-14T00:10:13.695Z,22.07
2018-07-14T00:12:42.569Z,13.70
2018-07-14T00:15:11.500Z,10.13
2018-07-14T00:17:40.457Z,12.20
2018-07-14T00:20:09.139Z,12.50
2018-07-14T00:22:37.961Z,11.10
2018-07-14T00:25:07.036Z,12.27
2018-07-14T00:27:35.704Z,16.73
2018-07-14T00:30:04.804Z,17.40
2018-07-14T00:32:33.470Z,10.70
2018-07-14T00:35:02.225Z,15.10
2018-07-14T00:37:30.959Z,15.03
2018-07-14T00:40:00.109Z,19.30
2018-07-14T00:42:28.880Z,13.10
2018-07-14T00:44:57.665Z,14.63
2018-07-14T00:47:26.467Z,16.43
2018-07-14T00:49:55.293Z,11.97
2018-07-14T00:52:24.345Z,13.47
2018-07-14T00:54:53.327Z,18.30
2018-07-14T00:57:22.153Z,17.57
2018-07-14T00:59:51.029Z,20.43
2018-07-14T01:02:19.716Z,13.70
2018-07-14T01:04:48.336Z,13.63
2018-07-14T01:07:17.683Z,11.80
2018-07-14T01:09:46.280Z,14.93
2018-07-14T01:12:15.008Z,18.27
2018-07-14T01:14:43.864Z,23.27
2018-07-14T01:17:12.675Z,17.17
2018-07-14T01:19:41.626Z,16.87
2018-07-14T01:22:10.535Z,10.10
2018-07-14T01:24:39.348Z,13.00
2018-07-14T01:27:08.040Z,17.83
2018-07-14T01:29:36.783Z,14.07
2018-07-14T01:32:05.575Z,15.30
2018-07-14T01:34:34.201Z,14.37
2018-07-14T01:37:02.850Z,12.00
2018-07-14T01:39:31.600Z,15.13
2018-07-14T01:42:00.481Z,14.43
2018-07-14T01:44:29.608Z,13.17
2018-07-14T01:46:58.283Z,14.13
2018-07-14T01:49:27.030Z,12.47
2018-07-14T01:51:56.175Z,14.37
2018-07-14T01:54:25.058Z,12.13
2018-07-14T01:56:53.856Z,20.90
2018-07-14T01:59:22.768Z,13.97
2018-07-14T02:01:51.396Z,14.10
2018-07-14T02:04:20.390Z,12.70
2018-07-14T02:06:49.099Z,14.17
2018-07-14T02:09:17.862Z,14.90
2018-07-14T02:11:46.776Z,14.30
2018-07-14T02:14:15.453Z,15.50
2018-07-14T02:16:44.509Z,15.03
2018-07-14T02:19:13.425Z,16.43
2018-07-14T02:21:42.003Z,18.37
2018-07-14T02:24:10.712Z,16.30
2018-07-14T02:26:39.367Z,14.60
2018-07-14T02:29:08.302Z,15.60
2018-07-14T02:31:36.935Z,18.27
2018-07-14T02:34:05.810Z,21.87
2018-07-14T02:36:34.613Z,14.60
2018-07-14T02:39:03.943Z,14.70
2018-07-14T02:41:32.661Z,23.60
2018-07-14T02:44:01.439Z,14.63
2018-07-14T02:46:30.116Z,24.93
2018-07-14T02:48:59.279Z,15.87
2018-07-14T02:51:28.351Z,19.00
2018-07-14T02:53:57.009Z,14.67
2018-07-14T02:56:25.690Z,12.60
2018-07-14T02:58:55.044Z,11.50
2018-07-14T03:01:23.791Z,12.80
2018-07-14T03:03:52.586Z,13.60
2018-07-14T03:06:21.481Z,15.43
2018-07-14T03:08:50.160Z,14.63
2018-07-14T03:11:18.951Z,21.57
2018-07-14T03:13:48.042Z,17.33
2018-07-14T03:16:16.935Z,14.30
2018-07-14T03:18:45.735Z,26.23
2018-07-14T03:21:14.589Z,20.30
2018-07-14T03:23:43.187Z,15.07
2018-07-14T03:26:12.147Z,14.83
2018-07-14T03:28:41.232Z,15.53
2018-07-14T03:31:10.058Z,14.70
2018-07-14T03:33:38.782Z,16.07
2018-07-14T03:36:07.512Z,12.90
2018-07-14T03:38:36.336Z,14.53
2018-07-14T03:41:05.279Z,15.97
2018-07-14T03:43:34.664Z,13.70
2018-07-14T03:46:03.449Z,13.90
2018-07-14T03:48:32.299Z,18.57
2018-07-14T03:51:01.119Z,14.63
2018-07-14T03:53:29.825Z,18.30
2018-07-14T03:55:58.691Z,13.00
2018-07-14T03:58:27.687Z,20.90
2018-07-14T04:00:56.302Z,17.60
2018-07-14T04:03:25.212Z,16.00
2018-07-14T04:05:54.233Z,13.30
2018-07-14T04:08:23.011Z,14.13
2018-07-14T04:10:52.144Z,18.80
2018-07-14T04:13:21.032Z,16.27
2018-07-14T04:15:49.895Z,13.77
2018-07-14T04:18:18.840Z,15.43
2018-07-14T04:20:47.995Z,17.40
2018-07-14T04:23:16.801Z,21.90
2018-07-14T04:25:45.558Z,21.73
2018-07-14T04:28:14.439Z,16.67
2018-07-14T04:30:43.104Z,13.93
2018-07-14T04:33:12.048Z,27.33
2018-07-14T04:35:40.994Z,17.27
2018-07-14T04:38:09.623Z,21.13
2018-07-14T04:40:38.867Z,15.87
2018-07-14T04:43:07.987Z,14.40
2018-07-14T04:45:36.747Z,18.50
2018-07-14T04:48:05.420Z,17.07
2018-07-14T04:50:34.436Z,28.17
2018-07-14T04:53:03.331Z,14.20
2018-07-14T04:55:32.015Z,16.70
2018-07-14T04:58:00.853Z,16.83
2018-07-14T05:00:29.736Z,20.00
2018-07-14T05:02:58.523Z,22.30
2018-07-14T05:05:27.232Z,15.50
2018-07-14T05:07:56.084Z,16.57
2018-07-14T05:10:25.680Z,14.50
2018-07-14T05:12:54.791Z,18.40
2018-07-14T05:15:23.547Z,17.10
2018-07-14T05:17:52.585Z,17.50
2018-07-14T05:20:21.227Z,23.70
2018-07-14T05:22:49.812Z,17.10
2018-07-14T05:25:18.660Z,17.80
2018-07-14T05:27:47.477Z,14.20
2018-07-14T05:30:16.056Z,20.33
2018-07-14T05:32:45.435Z,18.80
2018-07-14T05:35:16.639Z,16.53
2018-07-14T05:37:46.292Z,22.80
2018-07-14T05:40:14.980Z,19.90
2018-07-14T05:42:43.737Z,16.37
2018-07-14T05:45:12.352Z,22.13
2018-07-14T05:47:40.954Z,16.67
2018-07-14T05:50:09.782Z,19.63
2018-07-14T05:52:38.418Z,17.73
2018-07-14T05:55:06.996Z,20.53
2018-07-14T05:57:36.108Z,17.23
2018-07-14T06:00:05.664Z,23.50
2018-07-14T06:02:34.439Z,17.60
2018-07-14T06:05:03.219Z,23.70
2018-07-14T06:07:31.856Z,19.33
2018-07-14T06:10:00.556Z,18.33
2018-07-14T06:12:29.586Z,17.83
2018-07-14T06:14:58.246Z,16.80
2018-07-14T06:17:26.996Z,22.90
2018-07-14T06:19:55.743Z,23.00
2018-07-14T06:22:24.413Z,18.53
2018-07-14T06:24:53.104Z,17.83
2018-07-14T06:27:21.903Z,13.60
2018-07-14T06:29:50.603Z,16.60
2018-07-14T06:32:19.476Z,17.73
2018-07-14T06:34:48.115Z,13.77
2018-07-14T06:37:16.827Z,17.20
2018-07-14T06:39:45.752Z,19.53
2018-07-14T06:42:14.428Z,14.10
2018-07-14T06:44:43.252Z,13.00
2018-07-14T06:47:12.665Z,14.33
2018-07-14T06:49:41.710Z,15.43
2018-07-14T06:52:10.512Z,14.00
2018-07-14T06:54:39.173Z,17.73
2018-07-14T06:57:07.929Z,13.53
2018-07-14T06:59:36.711Z,14.00
2018-07-14T07:02:06.743Z,14.50
2018-07-14T07:04:36.864Z,10.90
2018-07-14T07:07:06.959Z,10.67
2018-07-14T07:09:37.411Z,8.63
2018-07-14T07:12:06.648Z,12.93
2018-07-14T07:14:36.202Z,8.73
2018-07-14T07:17:06.099Z,9.67
2018-07-14T07:19:36.908Z,9.50
2018-07-14T07:22:06.962Z,12.03
2018-07-14T07:24:36.840Z,8.47
2018-07-14T07:27:06.960Z,8.93
2018-07-14T07:29:36.820Z,15.67
2018-07-14T07:32:06.830Z,8.77
2018-07-14T07:34:35.497Z,11.03
2018-07-14T07:37:10.119Z,12.60
2018-07-14T07:39:40.358Z,16.57
2018-07-14T07:42:11.039Z,11.17
2018-07-14T07:44:42.391Z,9.77
2018-07-14T07:47:14.567Z,9.87
2018-07-14T07:49:45.176Z,21.30
2018-07-14T07:52:15.596Z,13.93
2018-07-14T07:54:45.511Z,9.87
2018-07-14T07:57:15.079Z,10.33
2018-07-14T07:59:46.178Z,10.50
2018-07-14T08:02:15.371Z,12.00
2018-07-14T08:04:45.740Z,14.40
2018-07-14T08:07:15.704Z,14.63
2018-07-14T08:09:45.772Z,8.40
2018-07-14T08:12:16.636Z,12.10
2018-07-14T08:14:46.875Z,14.87
2018-07-14T08:17:15.439Z,14.07
2018-07-14T08:19:48.399Z,15.23
2018-07-14T08:22:17.875Z,11.00
2018-07-14T08:24:46.632Z,9.60
2018-07-14T08:27:15.756Z,20.43
2018-07-14T08:29:45.310Z,10.03
2018-07-14T08:32:15.422Z,14.10
2018-07-14T08:34:45.224Z,11.23
2018-07-14T08:37:14.534Z,11.93
2018-07-14T08:39:44.910Z,9.57
2018-07-14T08:42:16.157Z,17.23
2018-07-14T08:44:45.223Z,15.53
2018-07-14T08:47:14.683Z,19.10
2018-07-14T08:49:45.112Z,10.70
2018-07-14T08:52:15.519Z,7.27
2018-07-14T08:54:45.862Z,11.50
2018-07-14T08:57:17.385Z,14.23
2018-07-14T08:59:46.519Z,10.03
2018-07-14T09:02:17.289Z,12.03
2018-07-14T09:04:45.980Z,10.20
2018-07-14T09:07:16.232Z,12.20
2018-07-14T09:09:47.294Z,12.50
2018-07-14T09:12:18.692Z,16.80
2018-07-14T09:14:49.837Z,7.37
2018-07-14T09:17:20.175Z,13.83
2018-07-14T09:19:50.516Z,10.03
2018-07-14T09:22:21.897Z,15.77
2018-07-14T09:24:51.502Z,9.10
2018-07-14T09:27:21.085Z,7.80
2018-07-14T09:29:49.655Z,11.30
2018-07-14T09:32:18.342Z,10.57
2018-07-14T09:34:47.904Z,9.67
2018-07-14T09:37:18.257Z,9.33
2018-07-14T09:39:48.351Z,8.00
2018-07-14T09:42:18.651Z,12.07
2018-07-14T09:44:49.612Z,6.30
2018-07-14T09:47:19.771Z,9.27
2018-07-14T09:49:48.411Z,5.80
2018-07-14T09:52:17.233Z,6.00
2018-07-14T09:54:46.761Z,9.50
2018-07-14T09:57:16.555Z,11.00
2018-07-14T09:59:46.406Z,6.90
2018-07-14T10:02:16.171Z,8.43
2018-07-14T10:04:45.604Z,15.43
2018-07-14T10:07:16.404Z,6.93
2018-07-14T10:09:45.833Z,8.03
2018-07-14T10:12:16.625Z,7.13
2018-07-14T10:14:46.220Z,6.87
2018-07-14T10:17:16.140Z,4.60
2018-07-14T10:19:46.364Z,5.13
2018-07-14T10:22:15.825Z,9.17
2018-07-14T10:24:45.212Z,5.17
2018-07-14T10:27:13.777Z,6.80
2018-07-14T10:29:42.504Z,5.63
2018-07-14T10:32:11.133Z,4.37
2018-07-14T10:34:39.807Z,9.90
2018-07-14T10:37:08.509Z,4.10
2018-07-14T10:39:37.481Z,4.10
2018-07-14T10:42:06.129Z,13.20
2018-07-14T10:44:34.673Z,4.50
2018-07-14T10:47:03.463Z,3.80
2018-07-14T10:49:32.263Z,5.47
2018-07-14T10:52:00.829Z,6.78
2018-07-14T10:54:29.371Z,5.83
2018-07-14T10:56:58.068Z,6.97
2018-07-14T10:59:26.674Z,3.92
2018-07-14T11:01:55.449Z,4.70
2018-07-14T11:04:24.869Z,9.63
2018-07-14T11:06:53.673Z,4.20
2018-07-14T11:09:22.244Z,6.25
2018-07-14T11:11:51.908Z,5.60
2018-07-14T11:14:20.576Z,3.55
2018-07-14T11:16:51.034Z,8.63
2018-07-14T11:19:19.880Z,8.68
2018-07-14T11:21:48.799Z,5.87
2018-07-14T11:24:18.088Z,4.35
2018-07-14T11:26:46.789Z,4.08
2018-07-14T11:29:15.680Z,3.47
2018-07-14T11:31:44.548Z,6.50
2018-07-14T11:34:13.156Z,3.43
2018-07-14T11:36:41.893Z,6.67
2018-07-14T11:39:11.025Z,5.57
2018-07-14T11:41:39.627Z,3.73
2018-07-14T11:44:08.407Z,6.23
2018-07-14T11:46:37.123Z,6.78
2018-07-14T11:49:05.826Z,6.00
2018-07-14T11:51:34.568Z,4.45
2018-07-14T11:54:03.440Z,5.55
2018-07-14T11:56:32.074Z,5.40
2018-07-14T11:59:00.736Z,3.72
2018-07-14T12:01:29.648Z,6.23
2018-07-14T12:03:58.277Z,7.30
2018-07-14T12:06:26.923Z,3.63
2018-07-14T12:08:55.505Z,6.03
2018-07-14T12:11:24.231Z,5.10
2018-07-14T12:13:52.884Z,4.07
2018-07-14T12:16:21.532Z,6.80
2018-07-14T12:18:50.148Z,3.60
2018-07-14T12:21:18.760Z,4.43
2018-07-14T12:23:47.547Z,3.70
2018-07-14T12:26:16.540Z,4.28
2018-07-14T12:28:45.100Z,3.62
2018-07-14T12:31:13.792Z,3.65
2018-07-14T12:33:42.499Z,3.50
2018-07-14T12:36:11.266Z,3.98
2018-07-14T12:38:39.896Z,3.52
2018-07-14T12:41:08.584Z,3.30
2018-07-14T12:43:37.540Z,3.40
2018-07-14T12:46:06.372Z,3.30
2018-07-14T12:48:35.021Z,3.00
2018-07-14T12:51:03.692Z,3.62
2018-07-14T12:53:32.511Z,12.55
2018-07-14T12:56:01.052Z,5.42
2018-07-14T12:58:29.701Z,6.95
2018-07-14T13:00:58.583Z,3.30
2018-07-14T13:03:27.616Z,3.93
2018-07-14T13:05:56.479Z,4.00
2018-07-14T13:08:25.148Z,4.03
2018-07-14T13:10:53.803Z,4.30
2018-07-14T13:13:22.424Z,3.80
2018-07-14T13:15:51.542Z,3.83
2018-07-14T13:18:20.172Z,8.80
2018-07-14T13:20:48.903Z,3.77
2018-07-14T13:23:17.692Z,3.73
2018-07-14T13:25:46.324Z,3.93
2018-07-14T13:28:15.158Z,3.50
2018-07-14T13:30:43.814Z,6.23
2018-07-14T13:33:12.471Z,3.53
2018-07-14T13:35:41.302Z,6.67
2018-07-14T13:38:09.968Z,4.30
2018-07-14T13:40:38.675Z,3.67
2018-07-14T13:43:07.210Z,5.43
2018-07-14T13:45:35.834Z,4.13
2018-07-14T13:48:04.587Z,5.50
2018-07-14T13:50:33.163Z,5.00
2018-07-14T13:53:02.032Z,5.67
2018-07-14T13:55:30.736Z,7.00
2018-07-14T13:57:59.353Z,3.60
2018-07-14T14:00:27.971Z,4.00
2018-07-14T14:02:56.587Z,29.00
2018-07-14T14:05:25.328Z,3.33
2018-07-14T14:07:54.312Z,8.03
2018-07-14T14:10:23.091Z,4.20
2018-07-14T14:12:51.751Z,5.30
2018-07-14T14:15:20.679Z,5.37
2018-07-14T14:17:49.316Z,5.97
2018-07-14T14:20:18.236Z,6.93
2018-07-14T14:22:47.081Z,4.47
2018-07-14T14:25:15.749Z,7.17
2018-07-14T14:27:44.408Z,12.23
2018-07-14T14:30:13.161Z,4.23
2018-07-14T14:32:41.905Z,5.60
2018-07-14T14:35:10.708Z,6.43
2018-07-14T14:37:39.668Z,7.00
2018-07-14T14:40:09.968Z,7.60
2018-07-14T14:42:38.791Z,5.50
2018-07-14T14:45:07.716Z,10.20
2018-07-14T14:47:36.459Z,7.67
2018-07-14T14:50:05.361Z,4.80
2018-07-14T14:52:33.960Z,4.17
2018-07-14T14:55:02.488Z,7.63
2018-07-14T14:57:31.450Z,9.00
2018-07-14T15:00:00.117Z,5.60
2018-07-14T15:02:28.948Z,5.20
2018-07-14T15:04:57.777Z,4.87
2018-07-14T15:07:26.773Z,9.23
2018-07-14T15:09:55.427Z,5.33
2018-07-14T15:12:24.455Z,13.20
2018-07-14T15:14:53.093Z,5.60
2018-07-14T15:17:21.631Z,6.40
2018-07-14T15:19:50.321Z,6.13
2018-07-14T15:22:18.932Z,6.57
2018-07-14T15:24:47.536Z,6.30
2018-07-14T15:27:16.267Z,8.13
2018-07-14T15:29:45.148Z,6.13
2018-07-14T15:32:13.934Z,10.27
2018-07-14T15:34:42.726Z,8.60
2018-07-14T15:37:11.282Z,8.17
2018-07-14T15:39:40.249Z,9.70
2018-07-14T15:42:08.952Z,7.53
2018-07-14T15:44:37.860Z,9.43
2018-07-14T15:47:06.883Z,12.90
2018-07-14T15:49:35.775Z,7.07
2018-07-14T15:52:04.540Z,8.30
2018-07-14T15:54:33.211Z,5.13
2018-07-14T15:57:02.083Z,4.40
2018-07-14T15:59:30.671Z,7.10
2018-07-14T16:01:59.481Z,9.13
2018-07-14T16:04:28.071Z,5.10
2018-07-14T16:06:56.890Z,12.53
2018-07-14T16:09:25.692Z,5.90
2018-07-14T16:11:54.643Z,14.33
2018-07-14T16:14:23.304Z,5.23
2018-07-14T16:16:52.072Z,10.47
2018-07-14T16:19:20.655Z,9.97
2018-07-14T16:21:49.241Z,6.07
2018-07-14T16:24:17.840Z,9.20
2018-07-14T16:26:46.759Z,7.87
2018-07-14T16:29:15.395Z,8.93
2018-07-14T16:31:43.992Z,8.27
2018-07-14T16:34:13.033Z,9.90
2018-07-14T16:36:41.735Z,8.33
2018-07-14T16:39:11.111Z,6.00
2018-07-14T16:41:40.723Z,7.63
2018-07-14T16:44:09.583Z,15.13
2018-07-14T16:46:38.168Z,6.40
2018-07-14T16:49:07.007Z,7.90
2018-07-14T16:51:35.636Z,5.77
2018-07-14T16:54:05.622Z,6.00
2018-07-14T16:56:34.228Z,13.00
2018-07-14T16:59:03.082Z,8.23
2018-07-14T17:01:31.807Z,10.40
2018-07-14T17:04:01.062Z,9.40
2018-07-14T17:06:29.790Z,5.83
2018-07-14T17:08:58.447Z,7.93
2018-07-14T17:11:27.048Z,7.20
2018-07-14T17:13:55.648Z,5.80
2018-07-14T17:16:24.611Z,7.17
2018-07-14T17:18:53.264Z,10.80
2018-07-14T17:21:22.054Z,7.50
2018-07-14T17:23:50.704Z,13.33
2018-07-14T17:26:19.560Z,9.63
2018-07-14T17:28:48.451Z,15.30
2018-07-14T17:31:17.402Z,12.23
2018-07-14T17:33:46.304Z,7.83
2018-07-14T17:36:14.991Z,13.60
2018-07-14T17:38:43.598Z,10.73
2018-07-14T17:41:12.468Z,12.13
2018-07-14T17:43:41.248Z,10.37
2018-07-14T17:46:10.122Z,10.57
2018-07-14T17:48:38.899Z,10.77
2018-07-14T17:51:07.748Z,10.57
2018-07-14T17:53:36.685Z,24.43
2018-07-14T17:56:05.727Z,7.27
2018-07-14T17:58:34.348Z,9.97
2018-07-14T18:01:03.408Z,9.07
2018-07-14T18:03:32.192Z,13.37
2018-07-14T18:06:00.887Z,16.83
2018-07-14T18:08:29.743Z,19.97
2018-07-14T18:10:58.535Z,25.30
2018-07-14T18:13:27.215Z,35.20
2018-07-14T18:15:56.013Z,32.90
2018-07-14T18:18:25.207Z,19.33
2018-07-14T18:20:54.403Z,29.93
2018-07-14T18:23:27.259Z,22.03
2018-07-14T18:25:56.060Z,11.23
2018-07-14T18:28:26.020Z,9.40
2018-07-14T18:30:55.704Z,12.43
2018-07-14T18:33:26.259Z,14.23
2018-07-14T18:35:54.952Z,9.70
2018-07-14T18:38:23.780Z,8.73
2018-07-14T18:40:52.544Z,11.87
2018-07-14T18:43:21.414Z,16.93
2018-07-14T18:45:50.368Z,12.83
2018-07-14T18:48:19.184Z,17.13
2018-07-14T18:50:47.955Z,18.30
2018-07-14T18:53:16.607Z,21.23
2018-07-14T18:55:45.524Z,18.03
2018-07-14T18:58:14.508Z,23.93
2018-07-14T19:00:43.190Z,29.50
2018-07-14T19:03:12.019Z,22.00
2018-07-14T19:05:41.002Z,21.77
2018-07-14T19:08:09.631Z,34.77
2018-07-14T19:10:38.772Z,23.17
2018-07-14T19:13:07.735Z,25.57
2018-07-14T19:15:36.324Z,16.50
2018-07-14T19:18:05.156Z,26.67
2018-07-14T19:20:33.724Z,16.23
2018-07-14T19:23:02.459Z,10.90
2018-07-14T19:25:31.556Z,20.23
2018-07-14T19:28:00.240Z,19.80
2018-07-14T19:30:28.851Z,13.90
2018-07-14T19:32:57.552Z,12.80
2018-07-14T19:35:26.315Z,12.70
2018-07-14T19:37:55.050Z,14.10
2018-07-14T19:40:24.041Z,22.57
2018-07-14T19:42:52.973Z,17.57
2018-07-14T19:45:21.618Z,18.10
2018-07-14T19:47:50.428Z,28.77
2018-07-14T19:50:19.271Z,37.70
2018-07-14T19:52:48.049Z,36.90
2018-07-14T19:55:16.723Z,39.03
2018-07-14T19:57:45.516Z,35.57
2018-07-14T20:00:14.204Z,38.20
2018-07-14T20:02:42.968Z,19.17
2018-07-14T20:05:11.716Z,34.10
2018-07-14T20:07:40.492Z,21.37
2018-07-14T20:10:09.168Z,14.33
2018-07-14T20:12:37.932Z,15.97
2018-07-14T20:15:06.670Z,20.63
2018-07-14T20:17:35.635Z,14.50
2018-07-14T20:20:04.544Z,27.50
2018-07-14T20:22:33.186Z,15.07
2018-07-14T20:25:02.147Z,20.50
2018-07-14T20:27:30.772Z,15.80
2018-07-14T20:29:59.525Z,15.90
2018-07-14T20:32:28.378Z,15.67
2018-07-14T20:34:57.049Z,24.37
2018-07-14T20:37:25.700Z,25.27
2018-07-14T20:39:54.410Z,16.27
2018-07-14T20:42:23.094Z,17.47
2018-07-14T20:44:51.689Z,23.77
2018-07-14T20:47:20.564Z,16.57
2018-07-14T20:49:49.140Z,20.33
2018-07-14T20:52:18.001Z,11.73
2018-07-14T20:54:46.915Z,19.93
2018-07-14T20:57:15.548Z,22.23
2018-07-14T20:59:44.310Z,18.27
2018-07-14T21:02:13.227Z,17.57
2018-07-14T21:04:41.833Z,16.40
2018-07-14T21:07:10.484Z,18.27
2018-07-14T21:09:39.160Z,21.13
2018-07-14T21:12:08.393Z,17.73
2018-07-14T21:14:37.107Z,17.50
2018-07-14T21:17:19.415Z,17.23
2018-07-14T21:20:06.040Z,17.80
2018-07-14T21:23:01.272Z,16.50
2018-07-14T21:25:30.651Z,12.87
2018-07-14T21:27:59.371Z,17.10
2018-07-14T21:30:28.120Z,19.70
2018-07-14T21:32:56.853Z,18.73
2018-07-14T21:35:25.560Z,24.50
2018-07-14T21:37:54.546Z,16.30
2018-07-14T21:40:23.361Z,14.67
2018-07-14T21:42:52.193Z,17.33
2018-07-14T21:45:20.866Z,15.07
2018-07-14T21:47:49.616Z,14.97
2018-07-14T21:50:18.494Z,14.87
2018-07-14T21:52:47.674Z,15.67
2018-07-14T21:55:16.532Z,14.70
2018-07-14T21:57:45.198Z,23.23
2018-07-14T22:00:29.675Z,14.00
2018-07-14T22:02:58.497Z,17.47
2018-07-14T22:05:27.532Z,19.17
2018-07-14T22:07:56.417Z,19.27
2018-07-14T22:10:25.194Z,19.97
2018-07-14T22:12:54.322Z,26.23
2018-07-14T22:15:23.645Z,24.37
2018-07-14T22:17:53.075Z,22.27
2018-07-14T22:20:21.956Z,17.60
2018-07-14T22:22:50.868Z,26.00
2018-07-14T22:25:20.219Z,27.00
2018-07-14T22:27:49.013Z,25.97
2018-07-14T22:30:17.915Z,32.43
2018-07-14T22:32:46.853Z,32.93
2018-07-14T22:35:15.491Z,20.17
2018-07-14T22:37:44.510Z,23.37
2018-07-14T22:40:13.675Z,24.23
2018-07-14T22:42:42.656Z,22.30
2018-07-14T22:45:11.331Z,27.03
2018-07-14T22:47:40.286Z,29.23
2018-07-14T22:50:08.967Z,23.80
2018-07-14T22:52:37.787Z,20.20
2018-07-14T22:55:07.191Z,31.87
2018-07-14T22:57:35.968Z,21.03
2018-07-14T23:00:06.199Z,20.30
2018-07-14T23:02:35.131Z,19.47
2018-07-14T23:05:03.883Z,23.90
2018-07-14T23:07:32.655Z,21.50
2018-07-14T23:10:01.659Z,19.03
2018-07-14T23:12:30.361Z,19.40
2018-07-14T23:14:59.408Z,29.23
2018-07-14T23:17:27.980Z,19.30
2018-07-14T23:19:56.985Z,21.70
2018-07-14T23:22:25.700Z,20.87
2018-07-14T23:24:54.517Z,24.60
2018-07-14T23:27:23.625Z,25.13
2018-07-14T23:29:52.545Z,26.33
2018-07-14T23:32:21.347Z,27.70
2018-07-14T23:34:50.037Z,22.90
2018-07-14T23:37:18.733Z,25.33
2018-07-14T23:39:47.335Z,26.20
2018-07-14T23:42:16.076Z,26.67
2018-07-14T23:44:45.036Z,25.90
2018-07-14T23:49:47.687Z,36.43
2018-07-14T23:52:16.446Z,22.70
2018-07-14T23:54:45.448Z,27.50
2018-07-14T23:57:14.217Z,19.57
2018-07-14T23:59:43.158Z,21.10
